sensor_id;sensor_type;location;lat;lon;timestamp;pressure;altitude;pressure_sealevel;temperature;humidity
38530;BME280;24301;54.332;48.386;2023-04-03T00:00:41;98916.25;;;6.29;60.98
38530;BME280;24301;54.332;48.386;2023-04-03T00:03:07;98918.00;;;6.21;60.98
38530;BME280;24301;54.332;48.386;2023-04-03T00:05:33;98929.28;;;6.17;61.65
38530;BME280;24301;54.332;48.386;2023-04-03T00:07:59;98931.88;;;6.17;61.10
38530;BME280;24301;54.332;48.386;2023-04-03T00:10:29;98923.19;;;6.15;61.10
38530;BME280;24301;54.332;48.386;2023-04-03T00:12:58;98917.09;;;6.13;60.91
38530;BME280;24301;54.332;48.386;2023-04-03T00:15:25;98915.34;;;6.09;60.64
38530;BME280;24301;54.332;48.386;2023-04-03T00:17:50;98916.22;;;6.09;61.44
38530;BME280;24301;54.332;48.386;2023-04-03T00:20:16;98918.81;;;6.08;60.78
38530;BME280;24301;54.332;48.386;2023-04-03T00:22:45;98923.19;;;6.07;61.45
38530;BME280;24301;54.332;48.386;2023-04-03T00:25:12;98914.44;;;6.05;61.10
38530;BME280;24301;54.332;48.386;2023-04-03T00:27:38;98925.72;;;5.99;60.99
38530;BME280;24301;54.332;48.386;2023-04-03T00:30:06;98922.19;;;5.91;61.58
38530;BME280;24301;54.332;48.386;2023-04-03T00:32:33;98917.88;;;5.88;62.05
38530;BME280;24301;54.332;48.386;2023-04-03T00:35:02;98930.03;;;5.86;62.04
38530;BME280;24301;54.332;48.386;2023-04-03T00:37:28;98922.22;;;5.89;61.07
38530;BME280;24301;54.332;48.386;2023-04-03T00:39:54;98916.13;;;5.94;61.21
38530;BME280;24301;54.332;48.386;2023-04-03T00:42:20;98913.53;;;5.97;60.97
38530;BME280;24301;54.332;48.386;2023-04-03T00:47:15;98913.53;;;6.00;61.07
38530;BME280;24301;54.332;48.386;2023-04-03T00:49:50;98910.06;;;5.99;60.74
38530;BME280;24301;54.332;48.386;2023-04-03T00:52:19;98917.91;;;6.01;60.68
38530;BME280;24301;54.332;48.386;2023-04-03T00:54:48;98902.22;;;5.98;60.81
38530;BME280;24301;54.332;48.386;2023-04-03T00:57:16;98912.69;;;5.96;61.08
38530;BME280;24301;54.332;48.386;2023-04-03T00:59:53;98903.06;;;5.92;60.94
38530;BME280;24301;54.332;48.386;2023-04-03T01:02:21;98905.69;;;5.90;60.82
38530;BME280;24301;54.332;48.386;2023-04-03T01:04:50;98905.69;;;5.87;60.55
38530;BME280;24301;54.332;48.386;2023-04-03T01:07:24;98910.03;;;5.82;60.69
38530;BME280;24301;54.332;48.386;2023-04-03T01:09:57;98913.47;;;5.80;60.92
38530;BME280;24301;54.332;48.386;2023-04-03T01:12:36;98905.63;;;5.78;61.55
38530;BME280;24301;54.332;48.386;2023-04-03T01:15:11;98902.16;;;5.76;61.45
38530;BME280;24301;54.332;48.386;2023-04-03T01:17:52;98899.53;;;5.71;61.19
38530;BME280;24301;54.332;48.386;2023-04-03T01:23:37;98905.59;;;5.63;61.52
38530;BME280;24301;54.332;48.386;2023-04-03T01:26:14;98903.81;;;5.57;61.06
38530;BME280;24301;54.332;48.386;2023-04-03T01:28:44;98901.19;;;5.54;62.00
38530;BME280;24301;54.332;48.386;2023-04-03T01:34:05;98900.31;;;5.45;61.45
38530;BME280;24301;54.332;48.386;2023-04-03T01:36:32;98895.91;;;5.41;61.23
38530;BME280;24301;54.332;48.386;2023-04-03T01:38:59;98899.38;;;5.37;61.83
38530;BME280;24301;54.332;48.386;2023-04-03T01:41:27;98877.56;;;5.24;61.79
38530;BME280;24301;54.332;48.386;2023-04-03T01:44:00;98885.41;;;5.23;62.42
38530;BME280;24301;54.332;48.386;2023-04-03T01:46:26;98890.63;;;5.23;62.10
38530;BME280;24301;54.332;48.386;2023-04-03T01:48:55;98890.56;;;5.16;62.27
38530;BME280;24301;54.332;48.386;2023-04-03T01:51:21;98884.47;;;5.14;62.13
38530;BME280;24301;54.332;48.386;2023-04-03T01:53:47;98881.84;;;5.11;62.26
38530;BME280;24301;54.332;48.386;2023-04-03T01:56:13;98881.84;;;5.10;62.02
38530;BME280;24301;54.332;48.386;2023-04-03T01:58:39;98888.78;;;5.08;62.88
38530;BME280;24301;54.332;48.386;2023-04-03T02:01:28;98876.63;;;5.08;62.19
38530;BME280;24301;54.332;48.386;2023-04-03T02:03:58;98879.19;;;5.03;62.65
38530;BME280;24301;54.332;48.386;2023-04-03T02:07:13;98878.28;;;4.95;62.77
38530;BME280;24301;54.332;48.386;2023-04-03T02:10:09;98875.69;;;4.95;62.64
38530;BME280;24301;54.332;48.386;2023-04-03T02:12:47;98873.03;;;4.91;62.83
38530;BME280;24301;54.332;48.386;2023-04-03T02:15:13;98870.38;;;4.84;63.30
38530;BME280;24301;54.332;48.386;2023-04-03T02:17:53;98871.28;;;4.88;63.08
38530;BME280;24301;54.332;48.386;2023-04-03T02:20:20;98876.56;;;4.96;63.09
38530;BME280;24301;54.332;48.386;2023-04-03T02:22:46;98863.59;;;5.07;62.60
38530;BME280;24301;54.332;48.386;2023-04-03T02:25:12;98861.06;;;5.21;62.57
38530;BME280;24301;54.332;48.386;2023-04-03T02:27:38;98869.81;;;5.32;62.26
38530;BME280;24301;54.332;48.386;2023-04-03T02:30:05;98882.06;;;5.45;62.11
38530;BME280;24301;54.332;48.386;2023-04-03T02:32:32;98873.41;;;5.57;62.23
38530;BME280;24301;54.332;48.386;2023-04-03T02:34:58;98884.78;;;5.73;61.48
38530;BME280;24301;54.332;48.386;2023-04-03T02:37:24;98896.16;;;5.97;61.38
38530;BME280;24301;54.332;48.386;2023-04-03T02:39:52;98889.28;;;6.24;60.38
38530;BME280;24301;54.332;48.386;2023-04-03T02:42:18;98882.34;;;6.54;60.21
38530;BME280;24301;54.332;48.386;2023-04-03T02:44:44;98878.84;;;6.77;58.11
38530;BME280;24301;54.332;48.386;2023-04-03T02:47:20;98870.09;;;7.17;56.84
38530;BME280;24301;54.332;48.386;2023-04-03T02:49:47;98882.19;;;7.51;57.09
38530;BME280;24301;54.332;48.386;2023-04-03T02:52:15;98872.47;;;7.76;55.77
38530;BME280;24301;54.332;48.386;2023-04-03T02:54:44;98877.47;;;8.18;55.33
38530;BME280;24301;54.332;48.386;2023-04-03T02:57:10;98877.22;;;8.63;54.45
38530;BME280;24301;54.332;48.386;2023-04-03T02:59:37;98881.13;;;9.12;53.74
38530;BME280;24301;54.332;48.386;2023-04-03T03:02:09;98885.03;;;9.55;51.84
38530;BME280;24301;54.332;48.386;2023-04-03T03:04:36;98884.72;;;9.80;51.13
38530;BME280;24301;54.332;48.386;2023-04-03T03:07:02;98879.03;;;10.14;50.25
38530;BME280;24301;54.332;48.386;2023-04-03T03:09:29;98881.16;;;10.50;49.74
38530;BME280;24301;54.332;48.386;2023-04-03T03:11:55;98879.81;;;10.77;48.31
38530;BME280;24301;54.332;48.386;2023-04-03T03:14:22;98880.16;;;11.09;47.84
38530;BME280;24301;54.332;48.386;2023-04-03T03:16:48;98875.09;;;11.45;47.41
38530;BME280;24301;54.332;48.386;2023-04-03T03:19:15;98872.50;;;11.86;46.42
38530;BME280;24301;54.332;48.386;2023-04-03T03:21:41;98879.81;;;12.16;45.56
38530;BME280;24301;54.332;48.386;2023-04-03T03:24:11;98878.31;;;12.42;43.72
38530;BME280;24301;54.332;48.386;2023-04-03T03:27:08;98884.34;;;12.47;43.63
38530;BME280;24301;54.332;48.386;2023-04-03T03:29:34;98881.84;;;12.78;43.23
38530;BME280;24301;54.332;48.386;2023-04-03T03:32:01;98882.00;;;13.07;42.56
38530;BME280;24301;54.332;48.386;2023-04-03T03:34:27;98883.94;;;13.00;41.89
38530;BME280;24301;54.332;48.386;2023-04-03T03:36:58;98896.75;;;13.14;41.44
38530;BME280;24301;54.332;48.386;2023-04-03T03:39:32;98891.28;;;12.87;40.36
38530;BME280;24301;54.332;48.386;2023-04-03T03:41:58;98891.28;;;12.87;41.17
38530;BME280;24301;54.332;48.386;2023-04-03T03:44:24;98896.19;;;13.36;40.45
38530;BME280;24301;54.332;48.386;2023-04-03T03:46:50;98895.56;;;13.26;40.06
38530;BME280;24301;54.332;48.386;2023-04-03T03:49:17;98900.94;;;13.56;40.07
38530;BME280;24301;54.332;48.386;2023-04-03T03:51:45;98887.34;;;13.70;38.83
38530;BME280;24301;54.332;48.386;2023-04-03T03:54:15;98900.00;;;13.90;38.63
38530;BME280;24301;54.332;48.386;2023-04-03T03:56:41;98891.63;;;13.74;38.74
38530;BME280;24301;54.332;48.386;2023-04-03T03:59:08;98890.91;;;13.99;38.54
38530;BME280;24301;54.332;48.386;2023-04-03T04:01:34;98916.66;;;14.51;37.68
38530;BME280;24301;54.332;48.386;2023-04-03T04:04:00;98889.38;;;14.79;36.80
38530;BME280;24301;54.332;48.386;2023-04-03T04:06:30;98882.53;;;14.43;37.23
38530;BME280;24301;54.332;48.386;2023-04-03T04:08:59;98893.31;;;14.92;36.74
38530;BME280;24301;54.332;48.386;2023-04-03T04:11:25;98892.16;;;15.52;36.28
38530;BME280;24301;54.332;48.386;2023-04-03T04:13:56;98895.72;;;15.75;35.16
38530;BME280;24301;54.332;48.386;2023-04-03T04:16:25;98902.97;;;16.63;34.76
38530;BME280;24301;54.332;48.386;2023-04-03T04:18:52;98912.91;;;17.23;33.26
38530;BME280;24301;54.332;48.386;2023-04-03T04:21:19;98911.75;;;17.71;32.75
38530;BME280;24301;54.332;48.386;2023-04-03T04:23:46;98916.06;;;18.69;32.10
38530;BME280;24301;54.332;48.386;2023-04-03T04:26:13;98913.41;;;19.23;30.82
38530;BME280;24301;54.332;48.386;2023-04-03T04:28:39;98909.06;;;19.74;30.38
38530;BME280;24301;54.332;48.386;2023-04-03T04:31:06;98924.00;;;19.94;29.07
38530;BME280;24301;54.332;48.386;2023-04-03T04:33:32;98931.22;;;19.92;28.65
38530;BME280;24301;54.332;48.386;2023-04-03T04:36:01;98937.53;;;19.89;28.53
38530;BME280;24301;54.332;48.386;2023-04-03T04:38:27;98936.78;;;20.21;28.43
38530;BME280;24301;54.332;48.386;2023-04-03T04:40:54;98937.09;;;20.79;27.95
38530;BME280;24301;54.332;48.386;2023-04-03T04:43:20;98941.25;;;20.52;27.02
38530;BME280;24301;54.332;48.386;2023-04-03T04:46:04;98938.72;;;20.01;26.72
38530;BME280;24301;54.332;48.386;2023-04-03T04:48:34;98941.66;;;19.61;28.14
38530;BME280;24301;54.332;48.386;2023-04-03T04:51:01;98938.41;;;19.56;28.18
38530;BME280;24301;54.332;48.386;2023-04-03T04:53:27;98937.78;;;19.33;28.34
38530;BME280;24301;54.332;48.386;2023-04-03T04:55:54;98945.47;;;18.85;28.49
38530;BME280;24301;54.332;48.386;2023-04-03T04:58:20;98946.16;;;19.08;28.73
38530;BME280;24301;54.332;48.386;2023-04-03T05:00:47;98953.56;;;20.39;27.83
38530;BME280;24301;54.332;48.386;2023-04-03T05:03:13;98958.66;;;21.53;26.51
38530;BME280;24301;54.332;48.386;2023-04-03T05:05:39;98967.94;;;21.62;25.64
38530;BME280;24301;54.332;48.386;2023-04-03T05:08:05;98956.25;;;20.87;26.24
38530;BME280;24301;54.332;48.386;2023-04-03T05:10:31;98967.06;;;21.16;26.24
38530;BME280;24301;54.332;48.386;2023-04-03T05:12:57;98956.06;;;21.37;25.81
38530;BME280;24301;54.332;48.386;2023-04-03T05:15:23;98966.09;;;22.36;25.33
38530;BME280;24301;54.332;48.386;2023-04-03T05:17:50;98959.78;;;21.94;24.73
38530;BME280;24301;54.332;48.386;2023-04-03T05:20:16;98952.69;;;21.33;25.83
38530;BME280;24301;54.332;48.386;2023-04-03T05:22:44;98950.59;;;21.24;25.59
38530;BME280;24301;54.332;48.386;2023-04-03T05:25:10;98946.34;;;21.50;25.35
38530;BME280;24301;54.332;48.386;2023-04-03T05:27:38;98950.03;;;22.07;24.89
38530;BME280;24301;54.332;48.386;2023-04-03T05:30:04;98958.44;;;22.16;24.67
38530;BME280;24301;54.332;48.386;2023-04-03T05:32:32;98949.78;;;22.68;24.65
38530;BME280;24301;54.332;48.386;2023-04-03T05:35:11;98970.28;;;23.10;23.89
38530;BME280;24301;54.332;48.386;2023-04-03T05:37:39;98968.19;;;23.15;23.62
38530;BME280;24301;54.332;48.386;2023-04-03T05:40:07;98965.50;;;23.81;23.22
38530;BME280;24301;54.332;48.386;2023-04-03T05:42:34;98964.69;;;24.44;23.13
38530;BME280;24301;54.332;48.386;2023-04-03T05:45:00;98967.19;;;24.34;22.43
38530;BME280;24301;54.332;48.386;2023-04-03T05:47:26;98970.69;;;25.34;22.26
38530;BME280;24301;54.332;48.386;2023-04-03T05:49:52;98962.59;;;26.28;21.37
38530;BME280;24301;54.332;48.386;2023-04-03T05:52:20;98976.50;;;26.10;20.77
38530;BME280;24301;54.332;48.386;2023-04-03T05:54:47;98968.47;;;26.22;20.98
38530;BME280;24301;54.332;48.386;2023-04-03T05:57:18;98981.19;;;26.31;20.64
38530;BME280;24301;54.332;48.386;2023-04-03T05:59:45;98976.06;;;26.17;20.57
38530;BME280;24301;54.332;48.386;2023-04-03T06:02:22;98985.91;;;26.73;20.42
38530;BME280;24301;54.332;48.386;2023-04-03T06:04:51;98975.00;;;26.63;20.13
38530;BME280;24301;54.332;48.386;2023-04-03T06:07:20;98987.75;;;26.61;20.19
38530;BME280;24301;54.332;48.386;2023-04-03T06:09:50;98981.22;;;27.63;19.98
38530;BME280;24301;54.332;48.386;2023-04-03T06:12:18;98988.91;;;27.68;19.34
38530;BME280;24301;54.332;48.386;2023-04-03T06:14:44;98988.84;;;27.25;19.40
38530;BME280;24301;54.332;48.386;2023-04-03T06:17:10;98985.53;;;27.97;19.12
38530;BME280;24301;54.332;48.386;2023-04-03T06:19:37;98977.63;;;28.87;18.67
38530;BME280;24301;54.332;48.386;2023-04-03T06:22:03;98993.06;;;29.46;18.08
38530;BME280;24301;54.332;48.386;2023-04-03T06:24:30;98977.66;;;29.17;17.90
38530;BME280;24301;54.332;48.386;2023-04-03T06:26:56;98986.78;;;29.25;17.99
38530;BME280;24301;54.332;48.386;2023-04-03T06:29:22;98985.94;;;29.45;17.92
38530;BME280;24301;54.332;48.386;2023-04-03T06:31:49;98995.34;;;29.50;17.73
38530;BME280;24301;54.332;48.386;2023-04-03T06:34:16;98986.94;;;29.53;17.70
38530;BME280;24301;54.332;48.386;2023-04-03T06:36:42;98991.13;;;30.05;17.41
38530;BME280;24301;54.332;48.386;2023-04-03T06:39:15;98989.66;;;30.49;16.88
38530;BME280;24301;54.332;48.386;2023-04-03T06:41:43;99007.06;;;31.02;16.61
38530;BME280;24301;54.332;48.386;2023-04-03T06:44:08;98993.91;;;30.51;16.50
38530;BME280;24301;54.332;48.386;2023-04-03T06:46:37;98994.72;;;30.34;16.66
38530;BME280;24301;54.332;48.386;2023-04-03T06:49:04;98992.38;;;30.21;16.65
38530;BME280;24301;54.332;48.386;2023-04-03T06:51:33;98995.75;;;29.75;17.02
38530;BME280;24301;54.332;48.386;2023-04-03T06:54:00;98993.75;;;29.38;17.43
38530;BME280;24301;54.332;48.386;2023-04-03T06:56:27;99000.28;;;28.96;17.52
38530;BME280;24301;54.332;48.386;2023-04-03T06:58:54;99002.31;;;29.23;17.36
38530;BME280;24301;54.332;48.386;2023-04-03T07:01:21;98992.47;;;29.32;17.37
38530;BME280;24301;54.332;48.386;2023-04-03T07:03:48;98993.63;;;29.49;17.35
38530;BME280;24301;54.332;48.386;2023-04-03T07:06:15;98998.94;;;28.71;17.36
38530;BME280;24301;54.332;48.386;2023-04-03T07:08:42;98991.75;;;28.50;17.96
38530;BME280;24301;54.332;48.386;2023-04-03T07:11:09;98993.25;;;28.74;17.84
38530;BME280;24301;54.332;48.386;2023-04-03T07:13:35;98985.91;;;28.95;17.39
38530;BME280;24301;54.332;48.386;2023-04-03T07:16:02;98991.72;;;29.79;17.20
38530;BME280;24301;54.332;48.386;2023-04-03T07:18:34;99012.69;;;30.73;16.86
38530;BME280;24301;54.332;48.386;2023-04-03T07:21:00;99013.72;;;30.90;16.10
38530;BME280;24301;54.332;48.386;2023-04-03T07:23:26;99002.88;;;30.90;16.02
38530;BME280;24301;54.332;48.386;2023-04-03T07:25:53;99008.75;;;31.03;16.17
38530;BME280;24301;54.332;48.386;2023-04-03T07:28:20;99008.16;;;30.63;16.01
38530;BME280;24301;54.332;48.386;2023-04-03T07:30:50;99000.34;;;30.50;16.20
38530;BME280;24301;54.332;48.386;2023-04-03T07:33:17;99002.44;;;30.57;16.22
38530;BME280;24301;54.332;48.386;2023-04-03T07:35:43;98999.88;;;30.27;16.37
38530;BME280;24301;54.332;48.386;2023-04-03T07:38:10;98995.88;;;29.64;16.75
38530;BME280;24301;54.332;48.386;2023-04-03T07:40:37;98987.63;;;29.36;16.83
38530;BME280;24301;54.332;48.386;2023-04-03T07:43:04;99006.47;;;29.47;16.76
38530;BME280;24301;54.332;48.386;2023-04-03T07:45:31;99003.28;;;29.22;16.65
38530;BME280;24301;54.332;48.386;2023-04-03T07:47:57;98994.19;;;29.23;17.11
38530;BME280;24301;54.332;48.386;2023-04-03T07:50:23;99001.72;;;29.20;16.98
38530;BME280;24301;54.332;48.386;2023-04-03T07:52:49;98995.56;;;28.98;17.29
38530;BME280;24301;54.332;48.386;2023-04-03T07:55:16;98989.63;;;29.34;16.94
38530;BME280;24301;54.332;48.386;2023-04-03T07:57:42;98996.47;;;29.58;16.83
38530;BME280;24301;54.332;48.386;2023-04-03T08:00:08;98992.75;;;29.00;17.19
38530;BME280;24301;54.332;48.386;2023-04-03T08:02:37;98988.63;;;28.54;17.42
38530;BME280;24301;54.332;48.386;2023-04-03T08:05:04;99001.38;;;28.33;17.45
38530;BME280;24301;54.332;48.386;2023-04-03T08:07:30;98992.38;;;28.01;17.38
38530;BME280;24301;54.332;48.386;2023-04-03T08:09:56;98990.13;;;27.10;18.01
38530;BME280;24301;54.332;48.386;2023-04-03T08:12:22;98987.66;;;26.06;19.21
38530;BME280;24301;54.332;48.386;2023-04-03T08:14:48;98978.16;;;24.31;20.36
38530;BME280;24301;54.332;48.386;2023-04-03T08:17:14;98975.84;;;22.23;22.31
38530;BME280;24301;54.332;48.386;2023-04-03T08:19:40;98979.72;;;20.32;24.70
38530;BME280;24301;54.332;48.386;2023-04-03T08:22:06;98973.97;;;19.02;26.16
38530;BME280;24301;54.332;48.386;2023-04-03T08:24:33;98978.16;;;17.91;27.49
38530;BME280;24301;54.332;48.386;2023-04-03T08:26:59;98978.44;;;17.01;28.62
38530;BME280;24301;54.332;48.386;2023-04-03T08:29:26;98972.28;;;16.32;29.51
38530;BME280;24301;54.332;48.386;2023-04-03T08:31:52;98975.38;;;15.70;30.28
38530;BME280;24301;54.332;48.386;2023-04-03T08:34:19;98971.97;;;15.14;31.43
38530;BME280;24301;54.332;48.386;2023-04-03T08:36:45;98976.47;;;14.85;32.10
38530;BME280;24301;54.332;48.386;2023-04-03T08:39:12;98980.78;;;14.58;32.54
38530;BME280;24301;54.332;48.386;2023-04-03T08:41:42;98977.28;;;14.27;33.73
38530;BME280;24301;54.332;48.386;2023-04-03T08:44:39;98976.22;;;14.04;34.05
38530;BME280;24301;54.332;48.386;2023-04-03T08:47:11;98977.03;;;13.75;34.17
38530;BME280;24301;54.332;48.386;2023-04-03T08:49:52;98974.94;;;13.55;35.30
38530;BME280;24301;54.332;48.386;2023-04-03T08:52:27;98968.22;;;13.43;35.51
38530;BME280;24301;54.332;48.386;2023-04-03T08:54:58;98984.91;;;13.43;35.53
38530;BME280;24301;54.332;48.386;2023-04-03T08:57:39;98973.47;;;13.41;36.10
38530;BME280;24301;54.332;48.386;2023-04-03T09:05:14;98979.91;;;13.31;35.75
38530;BME280;24301;54.332;48.386;2023-04-03T09:10:27;98974.72;;;13.28;36.46
38530;BME280;24301;54.332;48.386;2023-04-03T09:16:02;98981.59;;;13.33;36.68
38530;BME280;24301;54.332;48.386;2023-04-03T09:18:40;98979.00;;;13.32;36.71
38530;BME280;24301;54.332;48.386;2023-04-03T09:23:59;98975.41;;;13.34;36.51
38530;BME280;24301;54.332;48.386;2023-04-03T09:27:01;98984.00;;;13.44;36.54
38530;BME280;24301;54.332;48.386;2023-04-03T09:29:29;98977.34;;;13.28;36.73
38530;BME280;24301;54.332;48.386;2023-04-03T09:31:58;98979.84;;;13.34;36.44
38530;BME280;24301;54.332;48.386;2023-04-03T09:34:32;98979.75;;;13.37;36.71
38530;BME280;24301;54.332;48.386;2023-04-03T09:37:00;98977.78;;;13.47;36.61
38530;BME280;24301;54.332;48.386;2023-04-03T09:39:32;98974.50;;;13.70;36.23
38530;BME280;24301;54.332;48.386;2023-04-03T09:42:14;98973.28;;;13.84;36.41
38530;BME280;24301;54.332;48.386;2023-04-03T09:44:54;98979.19;;;13.92;36.42
38530;BME280;24301;54.332;48.386;2023-04-03T09:47:24;98980.38;;;13.82;36.26
38530;BME280;24301;54.332;48.386;2023-04-03T09:52:34;98976.22;;;14.34;36.17
38530;BME280;24301;54.332;48.386;2023-04-03T09:55:10;98984.59;;;14.49;35.48
38530;BME280;24301;54.332;48.386;2023-04-03T09:57:39;98972.94;;;14.56;34.87
38530;BME280;24301;54.332;48.386;2023-04-03T10:00:06;98987.28;;;14.47;34.77
38530;BME280;24301;54.332;48.386;2023-04-03T10:02:44;98970.84;;;14.37;35.00
38530;BME280;24301;54.332;48.386;2023-04-03T10:08:28;98983.44;;;14.58;34.69
38530;BME280;24301;54.332;48.386;2023-04-03T10:13:35;98977.47;;;14.51;34.78
38530;BME280;24301;54.332;48.386;2023-04-03T10:16:13;98972.75;;;14.61;34.76
38530;BME280;24301;54.332;48.386;2023-04-03T10:18:56;98968.16;;;14.68;34.12
38530;BME280;24301;54.332;48.386;2023-04-03T10:21:47;98973.63;;;14.61;33.84
38530;BME280;24301;54.332;48.386;2023-04-03T10:24:23;98973.19;;;14.47;34.26
38530;BME280;24301;54.332;48.386;2023-04-03T10:32:33;98972.59;;;14.07;33.86
38530;BME280;24301;54.332;48.386;2023-04-03T10:38:07;98966.47;;;14.06;33.61
38530;BME280;24301;54.332;48.386;2023-04-03T10:41:04;98977.25;;;14.29;32.75
38530;BME280;24301;54.332;48.386;2023-04-03T10:46:22;98973.47;;;14.37;31.86
38530;BME280;24301;54.332;48.386;2023-04-03T10:51:45;98965.75;;;14.60;31.49
38530;BME280;24301;54.332;48.386;2023-04-03T10:56:50;98964.75;;;14.34;31.10
38530;BME280;24301;54.332;48.386;2023-04-03T11:01:52;98961.88;;;14.42;30.55
38530;BME280;24301;54.332;48.386;2023-04-03T11:04:21;98973.50;;;14.36;30.19
38530;BME280;24301;54.332;48.386;2023-04-03T11:06:53;98956.25;;;14.24;30.16
38530;BME280;24301;54.332;48.386;2023-04-03T11:09:33;98970.72;;;14.41;30.62
38530;BME280;24301;54.332;48.386;2023-04-03T11:12:19;98959.88;;;14.50;30.22
38530;BME280;24301;54.332;48.386;2023-04-03T11:14:48;98964.34;;;14.48;30.36
38530;BME280;24301;54.332;48.386;2023-04-03T11:22:43;98978.66;;;14.41;29.99
38530;BME280;24301;54.332;48.386;2023-04-03T11:30:28;98975.84;;;14.47;30.00
38530;BME280;24301;54.332;48.386;2023-04-03T11:33:24;98957.78;;;14.61;29.27
38530;BME280;24301;54.332;48.386;2023-04-03T11:35:57;98953.44;;;14.59;29.40
38530;BME280;24301;54.332;48.386;2023-04-03T11:38:30;98961.56;;;14.52;28.93
38530;BME280;24301;54.332;48.386;2023-04-03T11:41:03;98949.69;;;14.66;28.97
38530;BME280;24301;54.332;48.386;2023-04-03T11:43:31;98959.06;;;14.78;28.33
38530;BME280;24301;54.332;48.386;2023-04-03T11:46:04;98955.88;;;14.65;27.80
38530;BME280;24301;54.332;48.386;2023-04-03T11:53:42;98955.91;;;14.93;27.92
38530;BME280;24301;54.332;48.386;2023-04-03T11:56:31;98964.75;;;14.92;26.51
38530;BME280;24301;54.332;48.386;2023-04-03T12:01:54;98966.53;;;14.92;25.99
38530;BME280;24301;54.332;48.386;2023-04-03T12:04:23;98968.53;;;14.85;25.70
38530;BME280;24301;54.332;48.386;2023-04-03T12:06:59;98958.97;;;14.81;25.41
38530;BME280;24301;54.332;48.386;2023-04-03T12:09:54;98961.44;;;14.86;25.83
38530;BME280;24301;54.332;48.386;2023-04-03T12:12:37;98961.84;;;15.00;25.45
38530;BME280;24301;54.332;48.386;2023-04-03T12:17:46;98945.63;;;15.11;24.35
38530;BME280;24301;54.332;48.386;2023-04-03T12:23:34;98966.00;;;15.09;23.75
38530;BME280;24301;54.332;48.386;2023-04-03T12:26:20;98960.81;;;14.77;23.55
38530;BME280;24301;54.332;48.386;2023-04-03T12:28:48;98953.22;;;14.65;23.94
38530;BME280;24301;54.332;48.386;2023-04-03T12:31:16;98950.38;;;14.44;23.81
38530;BME280;24301;54.332;48.386;2023-04-03T12:34:15;98952.09;;;14.74;24.21
38530;BME280;24301;54.332;48.386;2023-04-03T12:36:52;98951.19;;;14.75;24.40
38530;BME280;24301;54.332;48.386;2023-04-03T12:39:55;98958.84;;;14.84;24.92
38530;BME280;24301;54.332;48.386;2023-04-03T12:45:23;98962.53;;;15.07;24.95
38530;BME280;24301;54.332;48.386;2023-04-03T12:47:52;98951.16;;;15.03;25.43
38530;BME280;24301;54.332;48.386;2023-04-03T12:50:28;98962.91;;;14.94;25.45
38530;BME280;24301;54.332;48.386;2023-04-03T12:53:27;98966.91;;;15.08;25.57
38530;BME280;24301;54.332;48.386;2023-04-03T12:56:25;98958.44;;;14.97;25.51
38530;BME280;24301;54.332;48.386;2023-04-03T12:58:54;98965.78;;;14.88;25.88
38530;BME280;24301;54.332;48.386;2023-04-03T13:01:25;98961.13;;;14.66;25.88
38530;BME280;24301;54.332;48.386;2023-04-03T13:03:58;98958.19;;;14.47;26.01
38530;BME280;24301;54.332;48.386;2023-04-03T13:06:31;98960.16;;;14.41;26.33
38530;BME280;24301;54.332;48.386;2023-04-03T13:09:00;98968.59;;;14.23;26.47
38530;BME280;24301;54.332;48.386;2023-04-03T13:11:46;98976.41;;;14.28;26.45
38530;BME280;24301;54.332;48.386;2023-04-03T13:14:22;98972.41;;;14.13;26.68
38530;BME280;24301;54.332;48.386;2023-04-03T13:16:59;98967.22;;;14.10;26.99
38530;BME280;24301;54.332;48.386;2023-04-03T13:19:29;98976.25;;;14.03;26.94
38530;BME280;24301;54.332;48.386;2023-04-03T13:22:01;98973.56;;;14.04;26.63
38530;BME280;24301;54.332;48.386;2023-04-03T13:24:32;98961.28;;;14.03;26.91
38530;BME280;24301;54.332;48.386;2023-04-03T13:27:00;98963.00;;;14.04;26.45
38530;BME280;24301;54.332;48.386;2023-04-03T13:29:36;98973.38;;;14.11;26.64
38530;BME280;24301;54.332;48.386;2023-04-03T13:32:03;98963.06;;;14.01;26.53
38530;BME280;24301;54.332;48.386;2023-04-03T13:34:42;98965.94;;;13.93;26.45
38530;BME280;24301;54.332;48.386;2023-04-03T13:37:24;98957.34;;;13.85;26.14
38530;BME280;24301;54.332;48.386;2023-04-03T13:40:16;98959.16;;;13.85;26.63
38530;BME280;24301;54.332;48.386;2023-04-03T13:42:42;98958.47;;;13.76;27.22
38530;BME280;24301;54.332;48.386;2023-04-03T13:45:16;98950.53;;;13.78;27.06
38530;BME280;24301;54.332;48.386;2023-04-03T13:47:45;98964.38;;;13.86;26.87
38530;BME280;24301;54.332;48.386;2023-04-03T13:53:08;98973.97;;;13.90;26.66
38530;BME280;24301;54.332;48.386;2023-04-03T13:55:33;98969.63;;;13.88;26.63
38530;BME280;24301;54.332;48.386;2023-04-03T13:58:03;98963.47;;;13.87;26.66
38530;BME280;24301;54.332;48.386;2023-04-03T14:00:49;98967.28;;;13.77;26.54
38530;BME280;24301;54.332;48.386;2023-04-03T14:03:23;98963.75;;;13.76;26.22
38530;BME280;24301;54.332;48.386;2023-04-03T14:05:49;98964.75;;;13.72;26.19
38530;BME280;24301;54.332;48.386;2023-04-03T14:08:16;98945.59;;;13.65;26.06
38530;BME280;24301;54.332;48.386;2023-04-03T14:10:42;98954.44;;;13.64;26.03
38530;BME280;24301;54.332;48.386;2023-04-03T14:13:13;98955.47;;;13.59;25.79
38530;BME280;24301;54.332;48.386;2023-04-03T14:15:39;98959.91;;;13.57;25.40
38530;BME280;24301;54.332;48.386;2023-04-03T14:18:06;98958.50;;;13.43;24.94
38530;BME280;24301;54.332;48.386;2023-04-03T14:20:32;98958.66;;;13.35;25.40
38530;BME280;24301;54.332;48.386;2023-04-03T14:22:58;98950.97;;;13.28;25.24
38530;BME280;24301;54.332;48.386;2023-04-03T14:25:24;98954.38;;;13.31;24.95
38530;BME280;24301;54.332;48.386;2023-04-03T14:27:52;98948.34;;;13.26;25.03
38530;BME280;24301;54.332;48.386;2023-04-03T14:32:49;98955.63;;;13.18;24.82